Wilmington, OH

1:00 AM EDT on July 28, 2017 (GMT -0400)
Truesdell St | | Change Station

Elev 1023 ft 39.44 °N, 83.83 °W | Updated 12 seconds ago

Overcast
Overcast
72.6 °F
Feels Like 72.6 °F
N
1.0
Wind Variable Wind from ENE

Today
High -- | Low -- °F
--% Chance of Precip.
Yesterday
High -- | Low -- °F
Precip. -- in
Pressure 29.84 in
Visibility 8.0 miles
Clouds Few 1000 ft
Overcast 11000 ft
Dew Point 71 °F
Humidity 96%
Rainfall 0.00 in
Snow Depth Not available.
6:31 AM 8:51 PM
Waxing Crescent, 27% visible
METAR KILN 280454Z AUTO 03004KT 8SM FEW010 OVC110 22/22 A2987 RMK AO2 SLP105 T02170217 402670194
Pressure 29.84 in
Visibility 8.0 miles
Clouds Few 1000 ft
Overcast 11000 ft
Dew Point 71 °F
Humidity 96%
Rainfall 0.00 in
Snow Depth Not available.
6:31 AM 8:51 PM
Waxing Crescent, 27% visible
METAR KILN 280454Z AUTO 03004KT 8SM FEW010 OVC110 22/22 A2987 RMK AO2 SLP105 T02170217 402670194

Get Severe Weather Alerts

Thanks for signing up!

Be on the lookout for a verification email in your inbox.

You'll start receiving the daily forecast at 6 AM.

×

10-Day Weather Forecast

Almanac

Astronomy

Jul. 28, 2017 Rise Set
Actual Time
Civil Twilight
Nautical Twilight
Astronomical Twilight
Moon
Length of Visible Light
Length of Day
Tomorrow will be .
, % of the Moon is Illuminated

Today's Extremes

State Highs State Lows

Community

WunderPhotos

Category 6

Welcome to Category 6. This is the collective home for Weather Underground's featured writeups by Dr. Jeff Masters (right), Bob Henson (left), Chris Burt, and other regular contributors.

Nearby

Air Quality

  Air Quality AQ Index Pollutant
Not available.

Snow Depth

Station Depth Elevation

Earthquake Activity

City Distance Mag. Time & Date
Minimum magnitude displayed is 2.5.

Coastal Water Temperatures

Place Temperature

Stations

Nearby Weather Stations

Station Location Temp. Windchill Dew Point Humidity Wind Precip. Elev Updated Type
                   

Watches & Warnings

There are currently no watches in effect.